Time;durP1;ratioP1;P1;durP2;ratioP2;P2;SDS_P1;SDS_P2;PMS_P1;PMS_P2;Temp;Humidity;BMP_temperature;BMP_pressure;BME280_temperature;BME280_humidity;BME280_pressure;Samples;Min_cycle;Max_cycle;Signal;HPM_P1;HPM_P2
2020/12/01 00:00:14;;;;;;;49.95;27.67;;;7.00;96.10;;;;;;5026117;28;20037;-75
2020/12/01 00:02:40;;;;;;;50.45;28.60;;;7.00;96.10;;;;;;5018567;28;20718;-75
2020/12/01 00:05:05;;;;;;;55.05;30.48;;;6.90;96.10;;;;;;5014279;28;20032;-75
2020/12/01 00:07:31;;;;;;;50.80;28.73;;;6.90;96.10;;;;;;5040862;28;20364;-75
2020/12/01 00:09:56;;;;;;;55.83;29.60;;;6.90;96.20;;;;;;5033113;28;20018;-75
2020/12/01 00:12:22;;;;;;;55.92;29.55;;;6.90;96.20;;;;;;5021576;28;20365;-75
2020/12/01 00:14:47;;;;;;;53.65;27.20;;;7.00;96.20;;;;;;5040135;28;20030;-75
2020/12/01 00:17:13;;;;;;;50.45;28.60;;;7.00;96.20;;;;;;5032798;28;20030;-75
2020/12/01 00:19:38;;;;;;;52.72;30.17;;;7.00;96.30;;;;;;5033876;28;20037;-75
2020/12/01 00:22:04;;;;;;;59.95;30.58;;;7.00;96.30;;;;;;5040618;28;20541;-75
2020/12/01 00:24:29;;;;;;;58.35;30.60;;;7.10;96.30;;;;;;5035361;28;20049;-75
2020/12/01 00:26:55;;;;;;;57.83;32.10;;;7.10;96.20;;;;;;5021753;28;20034;-74
2020/12/01 00:29:21;;;;;;;51.05;28.80;;;7.10;96.20;;;;;;5023268;28;20033;-75
2020/12/01 00:31:46;;;;;;;47.15;26.75;;;7.10;96.20;;;;;;5029206;28;20036;-75
2020/12/01 00:34:14;;;;;;;57.30;28.85;;;7.20;96.20;;;;;;5028627;28;20036;-75
2020/12/01 00:36:40;;;;;;;56.80;28.77;;;7.20;96.20;;;;;;5031105;28;20026;-75
2020/12/01 00:39:10;;;;;;;70.15;32.38;;;7.20;96.10;;;;;;5037847;28;20479;-75
2020/12/01 00:41:36;;;;;;;43.80;22.25;;;7.20;96.10;;;;;;5024768;28;20060;-75
2020/12/01 00:44:03;;;;;;;60.58;28.05;;;7.20;96.20;;;;;;5037559;28;20068;-75
2020/12/01 00:46:28;;;;;;;38.78;20.38;;;7.30;96.20;;;;;;5033341;28;20045;-75
2020/12/01 00:48:54;;;;;;;32.80;15.55;;;7.30;96.20;;;;;;5049769;28;20070;-75
2020/12/01 00:51:20;;;;;;;13.88;6.20;;;7.30;96.10;;;;;;5033905;28;20034;-74
2020/12/01 00:53:46;;;;;;;15.48;5.18;;;7.30;96.10;;;;;;5025603;28;20032;-74
2020/12/01 00:56:12;;;;;;;6.43;2.50;;;7.20;96.00;;;;;;5026306;28;20029;-73
2020/12/01 00:58:38;;;;;;;8.25;0.98;;;7.30;96.00;;;;;;5029413;28;20495;-72
2020/12/01 01:01:04;;;;;;;6.47;0.80;;;7.20;95.90;;;;;;5025720;28;20061;-73
2020/12/01 01:03:29;;;;;;;4.45;0.80;;;7.20;95.90;;;;;;5030005;28;20451;-73
2020/12/01 01:05:55;;;;;;;8.68;0.52;;;7.20;96.00;;;;;;5031690;28;20026;-73
2020/12/01 01:08:20;;;;;;;9.70;0.60;;;7.10;96.10;;;;;;5036721;28;20506;-73
2020/12/01 01:10:46;;;;;;;4.97;0.65;;;7.10;96.10;;;;;;5023331;28;20072;-73
2020/12/01 01:13:12;;;;;;;7.30;0.60;;;7.10;96.20;;;;;;5014246;28;20056;-70
2020/12/01 01:15:38;;;;;;;5.28;0.43;;;7.20;96.50;;;;;;5032593;28;20017;-73
2020/12/01 01:18:04;;;;;;;9.57;0.60;;;7.10;96.20;;;;;;5038905;28;20094;-74
2020/12/01 01:20:30;;;;;;;10.40;0.82;;;7.10;96.30;;;;;;5024947;28;20045;-74
2020/12/01 01:22:56;;;;;;;10.75;1.65;;;7.20;96.30;;;;;;5042126;28;20030;-73
2020/12/01 01:25:23;;;;;;;4.75;0.95;;;7.20;96.30;;;;;;5026357;28;20038;-73
2020/12/01 01:27:48;;;;;;;9.68;0.77;;;7.20;96.30;;;;;;5030964;28;20030;-74
2020/12/01 01:30:16;;;;;;;10.00;0.77;;;7.20;96.30;;;;;;5033099;28;20025;-73
2020/12/01 01:32:42;;;;;;;5.95;0.60;;;7.20;96.30;;;;;;5042091;28;20029;-73
2020/12/01 01:35:08;;;;;;;8.27;0.70;;;7.30;96.30;;;;;;5033328;28;20033;-73
2020/12/01 01:37:33;;;;;;;8.75;1.02;;;7.20;96.30;;;;;;5036872;28;20029;-73
2020/12/01 01:39:59;;;;;;;8.55;1.02;;;7.30;96.30;;;;;;5048373;28;20025;-73
2020/12/01 01:42:25;;;;;;;9.77;0.75;;;7.20;96.30;;;;;;5038258;28;20040;-73
2020/12/01 01:44:51;;;;;;;9.95;1.30;;;7.20;96.30;;;;;;5036530;28;20029;-74
2020/12/01 01:47:25;;;;;;;14.60;0.98;;;7.20;96.30;;;;;;5035024;28;20049;-73
2020/12/01 01:49:55;;;;;;;10.75;0.55;;;7.20;96.30;;;;;;5034767;28;20030;-73
2020/12/01 01:52:26;;;;;;;23.92;1.00;;;7.20;96.40;;;;;;5035196;28;20033;-73
2020/12/01 01:54:56;;;;;;;9.13;1.20;;;7.20;96.40;;;;;;5034856;28;20034;-73
2020/12/01 01:57:23;;;;;;;15.80;0.90;;;7.20;96.40;;;;;;5033955;28;20434;-74
2020/12/01 01:59:49;;;;;;;15.75;0.90;;;7.20;96.40;;;;;;5034027;28;20033;-73
2020/12/01 02:02:15;;;;;;;19.52;1.02;;;7.10;96.30;;;;;;5034591;28;20455;-73
2020/12/01 02:04:41;;;;;;;23.77;1.45;;;7.10;96.40;;;;;;5034042;28;20057;-73
2020/12/01 02:07:06;;;;;;;17.80;0.90;;;7.10;96.40;;;;;;5027698;28;20121;-73
2020/12/01 02:09:33;;;;;;;17.00;0.93;;;7.00;96.40;;;;;;5034979;28;20060;-74
2020/12/01 02:12:02;;;;;;;30.63;1.80;;;7.00;96.40;;;;;;5033535;28;20030;-74
2020/12/01 02:14:49;;;;;;;22.85;1.30;;;7.00;96.40;;;;;;5034618;28;20021;-74
2020/12/01 02:17:27;;;;;;;20.98;1.20;;;6.90;96.40;;;;;;5036502;28;20130;-71
2020/12/01 02:19:58;;;;;;;18.25;1.88;;;6.90;96.40;;;;;;5044783;28;20036;-74
2020/12/01 02:22:26;;;;;;;22.27;2.50;;;6.80;96.40;;;;;;5032447;28;20029;-74
2020/12/01 02:24:52;;;;;;;21.45;1.42;;;6.80;96.50;;;;;;5027812;28;20091;-74
2020/12/01 02:27:21;;;;;;;20.58;1.60;;;6.70;96.50;;;;;;5029402;28;20077;-73
2020/12/01 02:29:49;;;;;;;16.73;1.05;;;6.70;96.50;;;;;;5033954;28;20075;-74
2020/12/01 02:32:16;;;;;;;17.25;1.20;;;6.60;96.50;;;;;;5029646;28;20112;-74
2020/12/01 02:34:44;;;;;;;29.45;1.45;;;6.60;96.50;;;;;;5038481;28;20129;-74
2020/12/01 02:37:13;;;;;;;28.05;1.77;;;6.60;96.60;;;;;;5037964;28;20506;-74
2020/12/01 02:39:38;;;;;;;23.35;1.75;;;6.60;96.60;;;;;;5042991;28;20386;-74
2020/12/01 02:42:08;;;;;;;21.20;1.90;;;6.60;96.60;;;;;;5034770;28;20034;-73
2020/12/01 02:44:33;;;;;;;19.83;1.48;;;6.50;96.60;;;;;;5033682;28;20387;-73
2020/12/01 02:47:04;;;;;;;22.02;1.35;;;6.50;96.70;;;;;;5019135;28;20054;-73
2020/12/01 02:49:31;;;;;;;23.08;1.20;;;6.50;96.70;;;;;;5035643;28;20030;-74
2020/12/01 02:51:57;;;;;;;21.05;1.90;;;6.50;96.70;;;;;;5032357;28;20021;-74
2020/12/01 02:54:22;;;;;;;31.33;1.90;;;6.50;96.70;;;;;;5030150;28;20022;-74
2020/12/01 02:56:48;;;;;;;28.45;1.40;;;6.60;96.80;;;;;;5032213;28;20063;-74
2020/12/01 02:59:13;;;;;;;18.45;1.83;;;6.60;96.80;;;;;;5029401;28;20099;-74
2020/12/01 03:01:39;;;;;;;58.15;2.13;;;6.60;96.80;;;;;;5046851;28;20027;-74
2020/12/01 03:04:05;;;;;;;34.22;2.05;;;6.60;96.80;;;;;;5032590;28;20030;-74
2020/12/01 03:06:30;;;;;;;21.73;1.15;;;6.60;96.70;;;;;;5028817;28;20496;-74
2020/12/01 03:08:56;;;;;;;28.05;3.08;;;6.50;96.60;;;;;;5032317;28;20084;-74
2020/12/01 03:11:22;;;;;;;22.88;2.20;;;6.50;96.60;;;;;;5034494;28;20113;-74
2020/12/01 03:13:47;;;;;;;27.45;2.22;;;6.40;96.60;;;;;;5036462;28;20013;-74
2020/12/01 03:16:13;;;;;;;27.08;1.80;;;6.40;96.60;;;;;;5033729;28;20038;-74
2020/12/01 03:18:41;;;;;;;22.67;1.40;;;6.40;96.80;;;;;;5030332;28;20087;-74
2020/12/01 03:21:08;;;;;;;21.30;1.83;;;6.40;96.70;;;;;;5023304;28;20175;-74
2020/12/01 03:23:34;;;;;;;19.92;2.00;;;6.30;96.70;;;;;;5032665;28;20017;-74
2020/12/01 03:26:01;;;;;;;29.08;1.80;;;6.30;96.80;;;;;;5036112;28;20471;-74
2020/12/01 03:28:26;;;;;;;17.20;1.48;;;6.30;96.80;;;;;;5029558;28;20049;-73
2020/12/01 03:30:52;;;;;;;29.42;2.20;;;6.30;96.80;;;;;;5036834;28;20029;-74
2020/12/01 03:33:19;;;;;;;28.17;1.55;;;6.30;97.10;;;;;;5035475;28;20017;-74
2020/12/01 03:35:44;;;;;;;19.83;1.20;;;6.30;96.80;;;;;;5026886;28;20026;-74
2020/12/01 03:38:10;;;;;;;21.85;1.98;;;6.30;96.80;;;;;;5036449;28;20044;-74
2020/12/01 03:40:36;;;;;;;19.95;1.67;;;6.20;96.70;;;;;;5036486;28;20021;-73
2020/12/01 03:43:01;;;;;;;21.00;1.25;;;6.20;96.80;;;;;;5037490;28;20033;-74
2020/12/01 03:45:27;;;;;;;29.08;2.40;;;6.20;96.90;;;;;;5039959;28;20037;-74
2020/12/01 03:47:54;;;;;;;25.55;1.73;;;6.20;97.00;;;;;;5033506;28;20052;-73
2020/12/01 03:50:21;;;;;;;21.00;1.65;;;6.20;97.00;;;;;;5016026;28;20543;-74
2020/12/01 03:52:46;;;;;;;25.58;2.08;;;6.20;96.90;;;;;;5030800;28;20026;-73
2020/12/01 03:55:12;;;;;;;19.83;1.55;;;6.10;96.80;;;;;;5047424;28;20112;-74
2020/12/01 03:57:41;;;;;;;25.42;2.72;;;6.10;96.70;;;;;;5024834;28;20038;-74
2020/12/01 04:00:16;;;;;;;26.95;2.63;;;6.00;96.70;;;;;;5032332;28;20053;-74
2020/12/01 04:02:42;;;;;;;26.65;1.20;;;6.00;96.80;;;;;;5015088;28;20041;-74
2020/12/01 04:05:08;;;;;;;19.10;1.08;;;5.90;96.80;;;;;;5031083;28;20036;-73
2020/12/01 04:07:34;;;;;;;28.27;1.20;;;5.90;96.80;;;;;;5022655;28;20036;-73
2020/12/01 04:09:59;;;;;;;23.30;1.10;;;5.80;96.80;;;;;;5026013;28;20384;-73
2020/12/01 04:12:26;;;;;;;21.50;1.88;;;5.80;96.90;;;;;;5024876;28;20549;-73
2020/12/01 04:14:52;;;;;;;22.85;1.75;;;5.80;96.90;;;;;;5032467;28;20040;-74
2020/12/01 04:17:18;;;;;;;34.15;1.80;;;5.70;96.90;;;;;;5037075;28;20476;-73
2020/12/01 04:19:44;;;;;;;20.55;1.80;;;5.70;96.90;;;;;;5021222;28;20476;-73
2020/12/01 04:22:10;;;;;;;18.88;0.98;;;5.70;96.90;;;;;;5026988;28;20025;-73
2020/12/01 04:24:35;;;;;;;22.17;1.42;;;5.60;96.90;;;;;;5031446;28;20066;-74
2020/12/01 04:27:01;;;;;;;25.60;1.83;;;5.60;96.90;;;;;;5032159;28;20045;-74
2020/12/01 04:29:27;;;;;;;22.13;0.93;;;5.60;97.00;;;;;;5018527;28;20105;-74
2020/12/01 04:31:52;;;;;;;23.90;1.20;;;5.60;97.20;;;;;;5023658;28;20092;-73
2020/12/01 04:34:18;;;;;;;24.85;1.85;;;5.60;97.20;;;;;;5026587;28;20022;-74
2020/12/01 04:36:43;;;;;;;20.58;0.63;;;5.60;97.50;;;;;;5016663;28;20025;-73
2020/12/01 04:39:10;;;;;;;22.98;1.42;;;5.70;97.30;;;;;;5029372;28;20029;-73
2020/12/01 04:41:35;;;;;;;14.55;0.90;;;5.70;97.30;;;;;;5023807;28;20090;-73
2020/12/01 04:44:02;;;;;;;12.77;1.27;;;5.80;97.30;;;;;;5032753;28;20112;-73
2020/12/01 04:46:31;;;;;;;28.80;1.98;;;5.80;97.30;;;;;;5026059;28;20093;-74
2020/12/01 04:49:01;;;;;;;19.00;1.25;;;5.80;97.30;;;;;;5027842;28;20045;-73
2020/12/01 04:52:01;;;;;;;21.48;1.40;;;5.90;97.40;;;;;;5032505;28;20108;-74
2020/12/01 04:55:14;;;;;;;16.23;1.20;;;6.00;97.40;;;;;;5013297;28;20025;-74
2020/12/01 04:58:13;;;;;;;20.67;1.83;;;6.10;97.40;;;;;;5009137;28;20475;-74
2020/12/01 05:00:57;;;;;;;32.63;1.52;;;6.10;97.40;;;;;;5013843;28;20026;-73
2020/12/01 05:03:32;;;;;;;21.73;2.03;;;6.20;97.30;;;;;;5026576;28;20475;-74
2020/12/01 05:09:01;;;;;;;17.48;1.30;;;6.20;97.30;;;;;;5034630;28;20419;-74
2020/12/01 05:11:48;;;;;;;15.27;1.45;;;6.30;97.30;;;;;;5033296;28;20795;-74
2020/12/01 05:14:44;;;;;;;15.75;1.20;;;6.40;97.30;;;;;;5049934;28;20033;-74
2020/12/01 05:17:37;;;;;;;15.18;0.60;;;6.40;97.30;;;;;;5039672;28;20029;-74
2020/12/01 05:20:06;;;;;;;12.02;0.63;;;6.50;97.30;;;;;;5026610;28;20029;-74
2020/12/01 05:22:32;;;;;;;13.75;0.90;;;6.50;97.20;;;;;;5031234;28;20034;-74
2020/12/01 05:24:57;;;;;;;24.05;1.52;;;6.50;97.20;;;;;;5024214;28;20108;-74
2020/12/01 05:27:30;;;;;;;16.67;0.85;;;6.60;97.20;;;;;;5023429;28;20052;-74
2020/12/01 05:29:56;;;;;;;;;;;6.60;97.20;;;;;;5040334;28;20052;-74
2020/12/01 05:32:37;;;;;;;15.50;1.00;;;6.60;97.20;;;;;;5022638;28;19956;-74
2020/12/01 05:35:30;;;;;;;16.42;2.30;;;6.60;97.20;;;;;;5023641;28;20495;-71
2020/12/01 05:38:16;;;;;;;16.02;1.63;;;6.70;97.20;;;;;;5022359;28;20061;-72
2020/12/01 05:40:57;;;;;;;15.88;0.70;;;6.70;97.20;;;;;;5028644;28;20034;-74
2020/12/01 05:43:36;;;;;;;22.58;1.45;;;6.70;97.20;;;;;;5031488;28;20029;-74
2020/12/01 05:46:26;;;;;;;21.15;1.30;;;6.80;97.20;;;;;;5027775;28;20034;-73
2020/12/01 05:48:51;;;;;;;14.48;1.45;;;6.80;97.20;;;;;;5032430;28;20036;-74
2020/12/01 05:51:25;;;;;;;18.52;0.98;;;6.80;97.20;;;;;;5033697;28;20510;-74
2020/12/01 05:53:56;;;;;;;18.50;1.10;;;6.80;97.10;;;;;;5016530;28;20508;-74
2020/12/01 05:56:21;;;;;;;21.67;1.90;;;6.90;97.10;;;;;;5033037;28;20044;-74
2020/12/01 05:58:59;;;;;;;20.27;1.80;;;6.90;97.10;;;;;;5023018;28;20029;-74
2020/12/01 06:01:25;;;;;;;27.33;3.47;;;6.90;97.10;;;;;;5024358;28;20041;-72
2020/12/01 06:04:06;;;;;;;33.78;3.38;;;6.90;97.10;;;;;;5034773;28;20022;-74
2020/12/01 06:06:56;;;;;;;23.85;3.03;;;6.90;97.10;;;;;;5029495;28;20412;-73
2020/12/01 06:09:51;;;;;;;45.70;4.70;;;6.90;97.00;;;;;;5039779;28;20044;-73
2020/12/01 06:12:32;;;;;;;31.13;4.63;;;6.90;97.00;;;;;;5025891;28;20083;-73
2020/12/01 06:15:02;;;;;;;37.10;5.85;;;6.90;97.10;;;;;;5022680;28;20025;-73
2020/12/01 06:18:25;;;;;;;32.83;5.72;;;6.90;97.10;;;;;;5035333;28;20045;-73
2020/12/01 06:21:02;;;;;;;38.13;6.10;;;6.90;97.00;;;;;;5012456;28;20041;-73
2020/12/01 06:24:05;;;;;;;36.35;6.22;;;6.90;97.10;;;;;;5012371;28;20034;-73
2020/12/01 06:27:08;;;;;;;43.63;7.20;;;6.90;97.10;;;;;;5028489;28;20557;-74
2020/12/01 06:30:01;;;;;;;33.40;6.57;;;6.90;97.00;;;;;;5024848;28;20537;-73
2020/12/01 06:32:45;;;;;;;34.65;6.43;;;6.90;97.10;;;;;;5031034;28;20043;-73
2020/12/01 06:35:53;;;;;;;41.28;7.53;;;6.90;97.10;;;;;;5030751;28;20041;-73
2020/12/01 06:38:18;;;;;;;28.38;7.03;;;6.90;97.00;;;;;;5033210;28;20100;-73
2020/12/01 06:40:52;;;;;;;39.08;7.97;;;6.80;97.00;;;;;;5030756;28;20100;-73
2020/12/01 06:43:36;;;;;;;45.70;7.90;;;6.90;97.10;;;;;;5026553;28;20030;-73
2020/12/01 06:46:26;;;;;;;33.90;7.72;;;6.90;97.10;;;;;;5027252;28;20033;-73
2020/12/01 06:48:52;;;;;;;31.70;7.47;;;6.90;97.10;;;;;;5029151;28;20029;-72
2020/12/01 06:51:18;;;;;;;33.08;7.80;;;7.00;97.10;;;;;;5030074;28;20033;-72
2020/12/01 06:53:44;;;;;;;42.97;9.90;;;7.00;97.10;;;;;;5032787;28;20392;-73
2020/12/01 06:56:17;;;;;;;35.10;8.85;;;7.00;97.10;;;;;;5036513;28;20033;-74
2020/12/01 06:58:45;;;;;;;38.35;9.27;;;7.10;97.10;;;;;;5025584;28;20029;-73
2020/12/01 07:01:25;;;;;;;39.03;9.77;;;7.10;97.10;;;;;;5038634;28;20044;-72
2020/12/01 07:04:21;;;;;;;38.30;9.43;;;7.10;97.10;;;;;;5032805;28;20025;-72
2020/12/01 07:07:02;;;;;;;39.08;9.70;;;7.20;97.10;;;;;;5032847;28;20025;-73
2020/12/01 07:09:45;;;;;;;50.97;9.73;;;7.20;97.20;;;;;;5014796;28;20018;-72
2020/12/01 07:12:13;;;;;;;36.08;10.30;;;7.30;97.20;;;;;;5027242;28;20013;-72
2020/12/01 07:14:39;;;;;;;36.17;9.90;;;7.30;97.20;;;;;;5044202;28;20391;-73
2020/12/01 07:17:26;;;;;;;42.83;10.70;;;7.30;97.20;;;;;;5033707;28;20033;-73
2020/12/01 07:20:09;;;;;;;33.15;9.82;;;7.40;97.20;;;;;;5042472;28;20482;-73
2020/12/01 07:22:35;;;;;;;31.55;9.40;;;7.40;97.10;;;;;;5020096;28;20029;-73
2020/12/01 07:25:13;;;;;;;32.08;9.63;;;7.50;97.20;;;;;;5019041;28;20387;-72
2020/12/01 07:28:02;;;;;;;33.00;8.55;;;7.50;97.20;;;;;;5034534;28;20025;-72
2020/12/01 07:30:31;;;;;;;24.35;7.32;;;7.60;97.20;;;;;;5035496;28;20032;-73
2020/12/01 07:32:56;;;;;;;22.60;7.28;;;7.60;97.20;;;;;;5036785;28;20028;-74
2020/12/01 07:35:36;;;;;;;27.58;6.03;;;7.70;97.30;;;;;;5038911;28;20045;-73
2020/12/01 07:38:22;;;;;;;17.98;4.75;;;7.80;97.30;;;;;;5034193;28;20379;-74
2020/12/01 07:40:51;;;;;;;21.77;3.97;;;7.80;97.30;;;;;;5034171;28;20391;-74
2020/12/01 07:43:19;;;;;;;19.02;4.07;;;7.90;97.30;;;;;;5034092;28;20404;-73
2020/12/01 07:45:46;;;;;;;19.85;4.68;;;8.00;97.30;;;;;;5031138;28;20044;-73
2020/12/01 07:48:15;;;;;;;16.02;4.20;;;8.00;97.20;;;;;;5041347;28;20064;-74
2020/12/01 07:50:42;;;;;;;20.55;3.65;;;8.10;97.20;;;;;;5029364;28;20124;-74
2020/12/01 07:53:12;;;;;;;16.88;3.72;;;8.10;97.20;;;;;;5035528;28;20136;-73
2020/12/01 07:56:01;;;;;;;12.07;3.83;;;8.10;97.20;;;;;;5033863;28;20021;-73
2020/12/01 07:58:29;;;;;;;14.80;3.85;;;8.10;97.10;;;;;;5030425;28;20061;-72
2020/12/01 08:01:01;;;;;;;15.93;4.35;;;8.20;97.10;;;;;;5024301;28;20033;-72
2020/12/01 08:03:33;;;;;;;14.03;3.80;;;8.20;97.10;;;;;;5024987;28;20034;-72
2020/12/01 08:06:13;;;;;;;17.67;3.58;;;8.20;97.10;;;;;;5032249;28;20022;-72
2020/12/01 08:08:41;;;;;;;13.18;3.33;;;8.20;97.10;;;;;;5032427;28;20036;-72
2020/12/01 08:11:11;;;;;;;30.05;4.40;;;8.20;97.10;;;;;;5033213;28;20080;-73
2020/12/01 08:13:37;;;;;;;27.60;4.28;;;8.20;97.10;;;;;;5032078;28;20029;-72
2020/12/01 08:16:17;;;;;;;33.28;4.20;;;8.20;97.10;;;;;;5032552;28;20060;-72
2020/12/01 08:18:44;;;;;;;22.25;3.20;;;8.10;97.10;;;;;;5031221;28;20025;-73
2020/12/01 08:21:10;;;;;;;27.42;2.97;;;8.10;97.10;;;;;;5025403;28;20116;-72
2020/12/01 08:23:37;;;;;;;29.08;4.50;;;8.10;97.10;;;;;;5033231;28;20496;-72
2020/12/01 08:26:09;;;;;;;30.33;4.88;;;8.10;97.20;;;;;;5033425;28;20031;-72
2020/12/01 08:28:45;;;;;;;29.88;3.42;;;8.10;97.20;;;;;;5032548;28;20033;-72
2020/12/01 08:31:28;;;;;;;42.10;3.97;;;8.10;97.20;;;;;;5021195;28;20045;-72
2020/12/01 08:34:07;;;;;;;31.73;3.95;;;8.10;97.20;;;;;;5022618;28;20021;-72
2020/12/01 08:37:10;;;;;;;31.77;3.15;;;8.10;97.30;;;;;;5033236;28;20021;-72
2020/12/01 08:39:51;;;;;;;26.35;3.20;;;8.10;97.30;;;;;;5024671;28;20026;-72
2020/12/01 08:42:32;;;;;;;37.70;3.30;;;8.10;97.30;;;;;;5013508;28;20030;-73
2020/12/01 08:45:12;;;;;;;30.48;2.75;;;8.00;97.30;;;;;;5018119;28;20061;-73
2020/12/01 08:47:43;;;;;;;32.25;3.50;;;8.10;97.40;;;;;;5022361;28;20487;-73
2020/12/01 08:50:27;;;;;;;41.00;3.60;;;8.00;97.40;;;;;;5033473;28;20483;-73
2020/12/01 08:53:08;;;;;;;48.40;4.38;;;8.10;97.40;;;;;;5030790;28;20032;-73
2020/12/01 08:55:44;;;;;;;46.17;4.30;;;8.10;97.40;;;;;;5031855;28;20033;-72
2020/12/01 08:58:43;;;;;;;36.22;3.42;;;8.10;97.50;;;;;;5030444;28;20025;-72
2020/12/01 09:01:10;;;;;;;37.50;3.67;;;8.10;97.70;;;;;;5029607;28;20022;-73
2020/12/01 09:03:38;;;;;;;36.70;3.75;;;8.10;97.40;;;;;;5031294;28;20111;-72
2020/12/01 09:06:37;;;;;;;39.67;3.08;;;8.10;97.50;;;;;;5030922;28;20025;-72
2020/12/01 09:09:17;;;;;;;34.70;4.07;;;8.10;97.40;;;;;;5013352;28;20030;-72
2020/12/01 09:22:48;;;;;;;46.88;4.10;;;8.10;97.50;;;;;;5031944;28;20036;-69
2020/12/01 09:25:21;;;;;;;33.65;3.10;;;8.10;97.50;;;;;;5029737;28;20462;-69
2020/12/01 09:27:48;;;;;;;37.80;4.10;;;8.10;97.50;;;;;;5030827;28;20403;-70
2020/12/01 09:30:24;;;;;;;42.53;3.60;;;8.10;97.50;;;;;;5031268;28;20490;-69
2020/12/01 09:32:50;;;;;;;53.92;4.35;;;8.10;97.50;;;;;;5030928;28;20033;-69
2020/12/01 09:35:15;;;;;;;35.47;2.55;;;8.10;97.50;;;;;;5029343;28;20022;-70
2020/12/01 09:37:41;;;;;;;45.72;3.47;;;8.20;97.50;;;;;;5025963;28;20103;-72
2020/12/01 09:40:06;;;;;;;42.90;4.28;;;8.20;97.50;;;;;;5026443;28;20017;-70
2020/12/01 09:42:35;;;;;;;35.75;3.05;;;8.20;97.50;;;;;;5029873;28;20389;-71
2020/12/01 09:45:10;;;;;;;35.90;3.88;;;8.20;97.50;;;;;;5031078;28;20029;-72
2020/12/01 09:50:05;;;;;;;29.50;4.10;;;8.20;97.40;;;;;;5034504;28;20040;-70
2020/12/01 09:52:54;;;;;;;36.78;3.92;;;8.20;97.40;;;;;;5035455;28;20475;-70
2020/12/01 09:56:06;;;;;;;36.50;2.67;;;8.20;97.40;;;;;;5016270;28;20029;-70
2020/12/01 10:08:47;;;;;;;41.20;3.55;;;8.40;97.50;;;;;;5036010;28;20029;-70
2020/12/01 10:11:34;;;;;;;33.20;3.90;;;8.40;97.40;;;;;;5034742;28;20399;-70
2020/12/01 10:17:26;;;;;;;44.00;3.60;;;8.50;97.30;;;;;;5033750;28;20365;-70
2020/12/01 10:19:57;;;;;;;28.52;2.28;;;8.60;97.20;;;;;;5025776;28;20033;-70
2020/12/01 10:35:41;;;;;;;30.70;3.28;;;8.60;96.70;;;;;;5034891;28;20109;-72
2020/12/01 10:38:07;;;;;;;21.73;1.55;;;8.60;96.60;;;;;;5028789;28;20128;-71
2020/12/01 10:40:33;;;;;;;28.27;1.60;;;8.70;96.60;;;;;;5030884;28;20033;-72
2020/12/01 10:42:59;;;;;;;24.10;1.65;;;8.70;96.60;;;;;;5030189;28;20037;-72
2020/12/01 10:45:27;;;;;;;22.08;2.30;;;8.70;96.50;;;;;;5033697;28;20026;-71
2020/12/01 10:47:53;;;;;;;21.23;1.98;;;8.70;96.40;;;;;;5033251;28;20042;-71
2020/12/01 10:50:23;;;;;;;26.83;1.95;;;8.70;96.30;;;;;;5028071;28;20107;-71
2020/12/01 10:52:48;;;;;;;31.58;3.17;;;8.70;96.20;;;;;;5029983;28;20028;-71
2020/12/01 10:55:16;;;;;;;39.00;3.70;;;8.80;96.10;;;;;;5035033;28;20025;-71
2020/12/01 10:57:42;;;;;;;35.85;1.95;;;8.80;96.00;;;;;;5034509;28;20022;-71
2020/12/01 11:00:10;;;;;;;30.83;2.40;;;8.80;95.80;;;;;;5027055;28;20025;-71
2020/12/01 11:02:35;;;;;;;28.40;2.85;;;8.80;95.50;;;;;;5032280;28;20495;-71
2020/12/01 11:05:06;;;;;;;26.75;2.95;;;8.90;95.40;;;;;;5034104;28;20063;-71
2020/12/01 11:07:31;;;;;;;22.25;2.65;;;8.90;95.30;;;;;;5034160;28;20479;-71
2020/12/01 11:09:57;;;;;;;21.67;2.25;;;8.90;95.30;;;;;;5031346;28;20025;-71
2020/12/01 11:12:22;;;;;;;30.35;2.45;;;8.90;95.10;;;;;;5028232;28;20025;-71
2020/12/01 11:14:48;;;;;;;21.92;1.67;;;8.90;95.00;;;;;;5034653;28;20056;-71
2020/12/01 11:17:14;;;;;;;36.60;3.35;;;8.90;94.90;;;;;;5018829;28;20075;-71
2020/12/01 11:19:39;;;;;;;21.13;2.20;;;8.90;94.80;;;;;;5031086;28;20100;-71
2020/12/01 11:22:05;;;;;;;27.65;1.90;;;8.90;94.80;;;;;;5033407;28;20025;-71
2020/12/01 11:24:31;;;;;;;28.17;1.80;;;8.90;94.80;;;;;;5031147;28;20028;-71
2020/12/01 11:26:56;;;;;;;39.15;3.55;;;8.90;94.70;;;;;;5027125;28;20034;-71
2020/12/01 11:29:22;;;;;;;31.52;2.38;;;9.00;94.50;;;;;;5031048;28;20018;-71
2020/12/01 11:31:47;;;;;;;30.23;2.97;;;9.00;94.40;;;;;;5024566;28;20032;-71
2020/12/01 11:34:14;;;;;;;22.08;2.17;;;9.00;94.20;;;;;;5037286;28;20021;-71
2020/12/01 11:36:40;;;;;;;24.27;2.53;;;9.10;94.20;;;;;;5028853;28;20028;-72
2020/12/01 11:39:12;;;;;;;23.40;1.85;;;9.10;93.90;;;;;;5028593;28;20337;-72
2020/12/01 11:41:38;;;;;;;24.73;1.85;;;9.20;93.80;;;;;;5024041;28;20423;-71
2020/12/01 11:44:04;;;;;;;19.02;1.55;;;9.10;93.60;;;;;;5034128;28;20392;-71
2020/12/01 11:46:30;;;;;;;25.00;2.97;;;9.20;93.50;;;;;;5033292;28;20046;-71
2020/12/01 11:49:01;;;;;;;19.98;2.28;;;9.20;93.40;;;;;;5033167;28;20084;-71
2020/12/01 11:51:27;;;;;;;29.52;2.58;;;9.20;93.30;;;;;;5030130;28;20025;-71
2020/12/01 11:53:52;;;;;;;19.98;2.17;;;9.20;93.10;;;;;;5033761;28;20440;-72
2020/12/01 11:56:18;;;;;;;21.55;1.88;;;9.30;93.00;;;;;;5032257;28;20108;-72
2020/12/01 11:58:43;;;;;;;23.35;2.08;;;9.30;93.00;;;;;;5032619;28;20029;-72
2020/12/01 12:01:10;;;;;;;20.15;1.48;;;9.20;92.90;;;;;;5033250;28;20391;-72
2020/12/01 12:03:35;;;;;;;38.00;3.42;;;9.30;92.80;;;;;;5033546;28;20440;-72
2020/12/01 12:06:01;;;;;;;29.48;3.63;;;9.20;92.50;;;;;;5031706;28;20124;-72
2020/12/01 12:08:27;;;;;;;24.42;2.50;;;9.20;92.40;;;;;;5033333;28;20120;-72
2020/12/01 12:10:52;;;;;;;28.63;2.72;;;9.20;92.30;;;;;;5033638;28;20387;-72
2020/12/01 12:13:18;;;;;;;16.55;1.30;;;9.20;92.20;;;;;;5033055;28;20047;-72
2020/12/01 12:15:43;;;;;;;26.15;2.10;;;9.20;92.20;;;;;;5018482;28;20033;-72
2020/12/01 12:18:09;;;;;;;23.65;1.60;;;9.20;91.90;;;;;;5031708;28;20075;-72
2020/12/01 12:20:34;;;;;;;19.02;2.30;;;9.20;91.70;;;;;;5030808;28;20037;-72
2020/12/01 12:23:00;;;;;;;24.00;2.20;;;9.30;91.80;;;;;;5032833;28;20025;-72
2020/12/01 12:25:26;;;;;;;20.08;2.22;;;9.20;91.40;;;;;;5026260;28;20479;-72
2020/12/01 12:27:51;;;;;;;21.00;1.45;;;9.30;91.60;;;;;;5025069;28;20375;-72
2020/12/01 12:30:17;;;;;;;31.00;2.78;;;9.30;91.50;;;;;;5053354;28;20415;-72
2020/12/01 12:32:42;;;;;;;19.33;1.48;;;9.30;91.20;;;;;;5024016;28;20029;-72
2020/12/01 12:35:08;;;;;;;20.58;1.77;;;9.30;91.10;;;;;;5029694;28;20041;-72
2020/12/01 12:37:34;;;;;;;21.77;1.92;;;9.30;90.90;;;;;;5032144;28;20052;-75
2020/12/01 12:39:59;;;;;;;16.65;2.15;;;9.40;90.70;;;;;;5031509;28;20060;-74
2020/12/01 12:42:25;;;;;;;19.67;1.60;;;9.40;90.80;;;;;;5030342;28;20121;-74
2020/12/01 12:44:50;;;;;;;24.10;1.77;;;9.40;90.70;;;;;;5026552;28;20037;-74
2020/12/01 12:47:16;;;;;;;19.52;1.38;;;9.40;90.60;;;;;;5032269;28;20492;-74
2020/12/01 12:49:42;;;;;;;26.80;1.98;;;9.40;90.40;;;;;;5032932;28;20029;-74
2020/12/01 12:52:07;;;;;;;12.45;1.33;;;9.40;90.40;;;;;;5028142;28;20443;-74
2020/12/01 12:54:33;;;;;;;25.80;1.65;;;9.40;90.60;;;;;;5021649;28;20063;-74
2020/12/01 12:56:59;;;;;;;17.88;1.90;;;9.40;90.40;;;;;;5030001;28;20025;-74
2020/12/01 12:59:24;;;;;;;18.63;2.35;;;9.40;90.40;;;;;;5032496;28;20078;-74
2020/12/01 13:01:50;;;;;;;21.58;2.30;;;9.40;90.40;;;;;;5030871;28;20029;-74
2020/12/01 13:04:15;;;;;;;22.45;1.60;;;9.40;90.30;;;;;;5045679;28;20052;-74
2020/12/01 13:06:41;;;;;;;19.85;1.65;;;9.40;90.30;;;;;;5043071;28;20514;-75
2020/12/01 13:09:06;;;;;;;21.83;2.47;;;9.40;90.20;;;;;;5030585;28;20029;-74
2020/12/01 13:11:32;;;;;;;22.02;2.65;;;9.40;90.00;;;;;;5030306;28;20032;-75
2020/12/01 13:13:58;;;;;;;20.42;2.30;;;9.50;90.10;;;;;;5032062;28;20022;-74
2020/12/01 13:16:23;;;;;;;24.63;2.58;;;9.50;90.00;;;;;;5029217;28;20040;-75
2020/12/01 13:18:49;;;;;;;15.82;1.50;;;9.50;90.00;;;;;;5029962;28;20030;-75
2020/12/01 13:21:15;;;;;;;21.73;1.38;;;9.50;89.80;;;;;;5031519;28;20076;-75
2020/12/01 13:23:40;;;;;;;27.58;2.17;;;9.50;89.50;;;;;;5035194;28;20528;-75
2020/12/01 13:26:06;;;;;;;19.33;1.45;;;9.60;89.20;;;;;;5035312;28;20088;-75
2020/12/01 13:28:32;;;;;;;21.10;1.30;;;9.60;89.20;;;;;;5035443;28;20029;-75
2020/12/01 13:30:57;;;;;;;14.45;1.40;;;9.60;89.00;;;;;;5036116;28;20113;-75
2020/12/01 13:33:23;;;;;;;26.65;2.15;;;9.60;88.80;;;;;;5034453;28;20030;-75
2020/12/01 13:35:48;;;;;;;16.95;1.60;;;9.60;88.50;;;;;;5016877;28;20025;-75
2020/12/01 13:38:14;;;;;;;18.48;1.75;;;9.70;88.80;;;;;;5036189;28;20033;-75
2020/12/01 13:40:39;;;;;;;21.65;1.88;;;9.70;88.70;;;;;;5033175;28;20034;-75
2020/12/01 13:43:05;;;;;;;30.40;2.42;;;9.70;88.70;;;;;;5039335;28;20045;-75
2020/12/01 13:45:31;;;;;;;14.70;1.98;;;9.70;88.50;;;;;;5034629;28;20399;-75
2020/12/01 13:47:56;;;;;;;17.15;1.15;;;9.70;88.60;;;;;;5047467;28;20122;-75